createdAt,value
2022-10-05T00:01:54.449Z,96361.75
2022-10-05T00:04:27.681Z,96362.65
2022-10-05T00:07:08.536Z,96358.73
2022-10-05T00:09:35.225Z,96364.69
2022-10-05T00:12:22.929Z,96367.42
2022-10-05T00:14:53.268Z,96363.52
2022-10-05T00:17:22.881Z,96364.84
2022-10-05T00:19:52.252Z,96366.61
2022-10-05T00:22:33.433Z,96368.39
2022-10-05T00:25:02.042Z,96372.25
2022-10-05T00:27:36.886Z,96371.61
2022-10-05T00:30:16.359Z,96366.42
2022-10-05T00:32:44.108Z,96370.46
2022-10-05T00:35:13.289Z,96377.52
2022-10-05T00:37:40.767Z,96375.04
2022-10-05T00:40:21.836Z,96372.25
2022-10-05T00:42:55.976Z,96376.27
2022-10-05T00:45:35.472Z,96377.30
2022-10-05T00:48:18.449Z,96388.87
2022-10-05T00:50:48.173Z,96387.02
2022-10-05T00:53:19.847Z,96390.64
2022-10-05T00:56:02.636Z,96386.23
2022-10-05T00:58:29.611Z,96383.58
2022-10-05T01:01:17.153Z,96383.99
2022-10-05T01:03:56.701Z,96386.11
2022-10-05T01:06:29.538Z,96389.63
2022-10-05T01:09:31.026Z,96389.46
2022-10-05T01:12:40.030Z,96389.41
2022-10-05T01:15:34.859Z,96390.66
2022-10-05T01:18:23.221Z,96398.70
2022-10-05T01:21:12.394Z,96399.54
2022-10-05T01:24:04.109Z,96400.08
2022-10-05T01:27:02.112Z,96400.91
2022-10-05T01:29:57.798Z,96403.68
2022-10-05T01:32:34.863Z,96403.33
2022-10-05T01:35:21.930Z,96405.98
2022-10-05T01:38:04.247Z,96411.61
2022-10-05T01:40:42.720Z,96408.96
2022-10-05T01:43:17.903Z,96405.08
2022-10-05T01:46:03.025Z,96401.89
2022-10-05T01:49:08.393Z,96411.23
2022-10-05T01:52:07.406Z,96413.23
2022-10-05T01:54:57.449Z,96402.81
2022-10-05T01:58:05.586Z,96401.48
2022-10-05T02:00:40.398Z,96403.67
2022-10-05T02:03:19.059Z,96400.35
2022-10-05T02:06:05.927Z,96398.91
2022-10-05T02:09:06.007Z,96402.81
2022-10-05T02:11:34.041Z,96396.73
2022-10-05T02:14:31.436Z,96387.66
2022-10-05T02:17:05.122Z,96381.08
2022-10-05T02:19:42.334Z,96380.30
2022-10-05T02:22:18.126Z,96385.02
2022-10-05T02:24:51.532Z,96386.27
2022-10-05T02:27:25.755Z,96386.10
2022-10-05T02:29:59.397Z,96392.58
2022-10-05T02:32:34.810Z,96394.33
2022-10-05T02:35:11.789Z,96394.52
2022-10-05T02:37:45.868Z,96401.17
2022-10-05T02:40:40.875Z,96412.33
2022-10-05T02:43:39.609Z,96416.08
2022-10-05T02:46:10.479Z,96412.27
2022-10-05T02:48:53.649Z,96407.30
2022-10-05T02:51:26.739Z,96411.89
2022-10-05T02:54:12.529Z,96411.67
2022-10-05T02:57:04.471Z,96418.13
2022-10-05T02:59:40.015Z,96424.29
2022-10-05T03:02:12.453Z,96426.73
2022-10-05T03:05:07.853Z,96432.78
2022-10-05T03:08:05.103Z,96432.73
2022-10-05T03:11:00.035Z,96433.19
2022-10-05T03:13:55.130Z,96437.00
2022-10-05T03:16:51.312Z,96439.83
2022-10-05T03:19:42.580Z,96442.98
2022-10-05T03:22:21.646Z,96445.20
2022-10-05T03:25:16.876Z,96447.02
2022-10-05T03:27:46.994Z,96449.10
2022-10-05T03:30:22.386Z,96446.67
2022-10-05T03:32:56.502Z,96446.48
2022-10-05T03:35:35.589Z,96449.54
2022-10-05T03:38:17.447Z,96447.72
2022-10-05T03:40:53.814Z,96450.27
2022-10-05T03:43:26.895Z,96448.95
2022-10-05T03:46:07.873Z,96453.76
2022-10-05T03:48:47.831Z,96454.11
2022-10-05T03:51:23.693Z,96457.86
2022-10-05T03:53:56.931Z,96460.52
2022-10-05T03:56:50.255Z,96457.36
2022-10-05T03:59:51.914Z,96455.45
2022-10-05T04:02:29.079Z,96451.67
2022-10-05T04:05:09.413Z,96456.08
2022-10-05T04:07:46.150Z,96453.33
2022-10-05T04:10:21.463Z,96455.02
2022-10-05T04:12:55.189Z,96456.33
2022-10-05T04:15:45.758Z,96455.73
2022-10-05T04:18:22.900Z,96458.07
2022-10-05T04:20:53.248Z,96467.06
2022-10-05T04:23:35.560Z,96471.27
2022-10-05T04:26:08.986Z,96474.15
2022-10-05T04:29:16.913Z,96471.60
2022-10-05T04:32:19.348Z,96471.11
2022-10-05T04:34:55.564Z,96473.13
2022-10-05T04:37:37.357Z,96479.31
2022-10-05T04:40:23.409Z,96483.82
2022-10-05T04:42:59.597Z,96486.02
2022-10-05T04:45:44.977Z,96485.40
2022-10-05T04:48:40.086Z,96486.61
2022-10-05T04:51:37.203Z,96482.46
2022-10-05T04:54:53.218Z,96488.43
2022-10-05T04:57:31.159Z,96486.98
2022-10-05T05:00:05.336Z,96485.03
2022-10-05T05:02:38.141Z,96487.60
2022-10-05T05:05:24.123Z,96489.10
2022-10-05T05:08:28.440Z,96489.97
2022-10-05T05:11:15.827Z,96496.39
2022-10-05T05:14:15.113Z,96498.73
2022-10-05T05:17:12.896Z,96493.36
2022-10-05T05:20:13.342Z,96498.86
2022-10-05T05:22:53.358Z,96501.72
2022-10-05T05:25:27.179Z,96497.20
2022-10-05T05:28:06.320Z,96500.44
2022-10-05T05:30:53.520Z,96498.11
2022-10-05T05:33:35.144Z,96492.05
2022-10-05T05:36:13.456Z,96483.63
2022-10-05T05:39:00.272Z,96487.67
2022-10-05T05:41:36.690Z,96491.16
2022-10-05T05:44:24.703Z,96488.66
2022-10-05T05:47:04.041Z,96484.55
2022-10-05T05:49:44.248Z,96489.27
2022-10-05T05:52:16.937Z,96488.54
2022-10-05T05:54:56.873Z,96492.45
2022-10-05T05:57:46.576Z,96496.29
2022-10-05T06:00:14.495Z,96503.17
2022-10-05T06:02:56.065Z,96504.10
2022-10-05T06:05:30.899Z,96508.33
2022-10-05T06:08:08.676Z,96508.65
2022-10-05T06:10:43.985Z,96510.02
2022-10-05T06:13:44.686Z,96509.21
2022-10-05T06:16:29.972Z,96514.59
2022-10-05T06:19:11.250Z,96508.05
2022-10-05T06:22:04.971Z,96508.19
2022-10-05T06:25:13.584Z,96508.91
2022-10-05T10:21:18.931Z,96541.67
2022-10-05T10:24:14.910Z,96542.29
2022-10-05T10:26:55.620Z,96549.04
2022-10-05T10:30:13.491Z,96549.63
2022-10-05T10:33:05.036Z,96552.46
2022-10-05T10:35:40.616Z,96553.95
2022-10-05T10:38:58.083Z,96546.91
2022-10-05T10:41:31.619Z,96547.30
2022-10-05T10:44:02.025Z,96541.13
2022-10-05T10:46:40.932Z,96535.98
2022-10-05T10:49:43.831Z,96534.86
2022-10-05T10:52:21.434Z,96532.58
2022-10-05T10:55:14.826Z,96531.20
2022-10-05T10:57:47.153Z,96533.35
2022-10-05T11:00:42.948Z,96532.50
2022-10-05T11:03:31.680Z,96529.65
2022-10-05T11:06:21.418Z,96528.68
2022-10-05T11:09:01.767Z,96527.66
2022-10-05T11:12:10.275Z,96522.61
2022-10-05T11:15:06.415Z,96518.74
2022-10-05T11:17:48.501Z,96526.52
2022-10-05T11:20:38.029Z,96529.47
2022-10-05T11:23:14.458Z,96526.77
2022-10-05T11:26:10.995Z,96531.48
2022-10-05T11:29:05.904Z,96525.78
2022-10-05T11:31:42.684Z,96525.06
2022-10-05T11:34:28.090Z,96532.44
2022-10-05T11:37:00.945Z,96533.83
2022-10-05T11:39:43.940Z,96533.09
2022-10-05T11:42:30.641Z,96535.56
2022-10-05T11:45:06.254Z,96541.03
2022-10-05T11:48:10.194Z,96538.67
2022-10-05T11:50:51.263Z,96540.64
2022-10-05T11:53:34.518Z,96538.80
2022-10-05T11:56:07.441Z,96544.82
2022-10-05T11:58:51.166Z,96546.67
2022-10-05T12:01:26.596Z,96546.93
2022-10-05T12:04:31.496Z,96548.44
2022-10-05T12:07:09.038Z,96544.95
2022-10-05T12:10:04.885Z,96544.99
2022-10-05T12:12:54.844Z,96538.57
2022-10-05T12:15:31.354Z,96539.38
2022-10-05T12:18:07.771Z,96540.39
2022-10-05T12:20:34.593Z,96541.20
2022-10-05T12:23:14.288Z,96540.82
2022-10-05T12:26:04.927Z,96540.06
2022-10-05T12:28:42.590Z,96543.10
2022-10-05T12:31:43.377Z,96546.24
2022-10-05T12:34:27.627Z,96544.14
2022-10-05T12:37:05.054Z,96540.94
2022-10-05T12:39:37.833Z,96540.86
2022-10-05T12:42:28.146Z,96533.34
2022-10-05T12:45:16.773Z,96534.77
2022-10-05T12:48:08.770Z,96530.78
2022-10-05T12:51:15.869Z,96532.56
2022-10-05T12:53:43.011Z,96530.64
2022-10-05T12:56:16.641Z,96532.08
2022-10-05T12:58:55.777Z,96531.58
2022-10-05T13:01:47.118Z,96529.99
2022-10-05T13:04:13.992Z,96529.13
2022-10-05T13:07:11.562Z,96530.91
2022-10-05T13:10:17.270Z,96528.39
2022-10-05T13:13:04.724Z,96527.59
2022-10-05T13:15:34.471Z,96528.64
2022-10-05T13:18:13.402Z,96528.05
2022-10-05T13:20:46.552Z,96526.03
2022-10-05T13:23:26.057Z,96526.98
2022-10-05T13:26:07.226Z,96524.52
2022-10-05T13:28:46.132Z,96519.73
2022-10-05T13:31:19.713Z,96516.14
2022-10-05T13:34:33.570Z,96512.16
2022-10-05T13:37:18.440Z,96505.95
2022-10-05T13:40:16.616Z,96506.50
2022-10-05T13:42:53.481Z,96500.02
2022-10-05T13:45:26.033Z,96499.30
2022-10-05T13:48:10.439Z,96497.96
2022-10-05T13:50:58.052Z,96502.57
2022-10-05T13:53:44.048Z,96504.38
2022-10-05T13:56:37.034Z,96506.75
2022-10-05T13:59:25.501Z,96511.41
2022-10-05T14:01:58.959Z,96508.11
2022-10-05T14:04:42.892Z,96501.95
2022-10-05T14:07:38.262Z,96499.27
2022-10-05T14:10:12.306Z,96494.13
2022-10-05T14:12:42.071Z,96493.48
2022-10-05T14:15:31.942Z,96488.49
2022-10-05T14:17:59.151Z,96487.70
2022-10-05T14:20:30.836Z,96490.45
2022-10-05T14:23:01.469Z,96499.52
2022-10-05T14:25:30.641Z,96502.08
2022-10-05T14:28:23.825Z,96498.61
2022-10-05T14:30:59.470Z,96497.54
2022-10-05T14:33:32.154Z,96495.67
2022-10-05T14:35:59.482Z,96489.77
2022-10-05T14:38:28.896Z,96487.93
2022-10-05T14:41:07.588Z,96489.60
2022-10-05T14:43:35.369Z,96491.24
2022-10-05T14:46:24.990Z,96496.36
2022-10-05T14:49:21.451Z,96494.13
2022-10-05T14:51:52.892Z,96503.84
2022-10-05T14:54:34.745Z,96503.92
2022-10-05T14:57:32.952Z,96504.45
2022-10-05T15:00:11.506Z,96498.78
2022-10-05T15:02:53.749Z,96500.10
2022-10-05T15:05:42.206Z,96503.81
2022-10-05T15:08:24.385Z,96502.35
2022-10-05T15:11:05.882Z,96506.78
2022-10-05T15:13:38.541Z,96507.38
2022-10-05T15:16:18.418Z,96514.55
2022-10-05T15:19:00.666Z,96521.63
2022-10-05T15:22:00.618Z,96527.34
2022-10-05T15:25:07.827Z,96526.85
2022-10-05T15:27:48.976Z,96529.17
2022-10-05T15:30:17.817Z,96528.22
2022-10-05T15:33:05.607Z,96529.97
2022-10-05T15:35:39.753Z,96534.45
2022-10-05T15:38:20.645Z,96539.54
2022-10-05T15:40:50.128Z,96539.98
2022-10-05T15:43:20.422Z,96545.45
2022-10-05T15:46:33.711Z,96542.94
2022-10-05T15:49:37.709Z,96539.09
2022-10-05T15:52:25.838Z,96534.46
2022-10-05T15:55:01.050Z,96531.84
2022-10-05T15:57:49.977Z,96536.10
2022-10-05T16:00:21.675Z,96540.12
2022-10-05T16:02:57.651Z,96543.58
2022-10-05T16:05:52.750Z,96548.32
2022-10-05T16:08:51.077Z,96549.52
2022-10-05T16:11:31.338Z,96551.56
2022-10-05T16:14:12.791Z,96551.23
2022-10-05T16:16:59.422Z,96552.02
2022-10-05T16:19:56.523Z,96557.34
2022-10-05T16:22:43.396Z,96557.99
2022-10-05T16:25:21.840Z,96561.13
2022-10-05T16:28:05.670Z,96565.73
2022-10-05T16:30:58.252Z,96566.33
2022-10-05T16:33:53.650Z,96570.90
2022-10-05T16:36:40.135Z,96581.23
2022-10-05T16:39:22.615Z,96585.73
2022-10-05T16:42:03.378Z,96587.52
2022-10-05T16:44:42.335Z,96587.55
2022-10-05T16:47:42.439Z,96594.99
2022-10-05T16:50:24.473Z,96599.08
2022-10-05T16:53:21.470Z,96599.75
2022-10-05T16:55:55.034Z,96601.09
2022-10-05T16:58:39.893Z,96602.73
2022-10-05T17:01:31.341Z,96605.30
2022-10-05T17:04:31.278Z,96605.04
2022-10-05T17:07:31.302Z,96612.67
2022-10-05T17:10:10.254Z,96618.91
2022-10-05T17:12:44.891Z,96617.85
2022-10-05T17:15:29.724Z,96612.92
2022-10-05T17:18:23.128Z,96615.35
2022-10-05T17:21:02.039Z,96614.30
2022-10-05T17:24:00.344Z,96609.92
2022-10-05T17:26:46.103Z,96607.58
2022-10-05T17:29:24.773Z,96604.41
2022-10-05T17:32:33.004Z,96610.51
2022-10-05T17:34:59.963Z,96606.91
2022-10-05T17:37:26.599Z,96605.27
2022-10-05T17:39:55.125Z,96605.78
2022-10-05T17:42:30.920Z,96608.41
2022-10-05T17:45:02.070Z,96610.70
2022-10-05T17:48:05.503Z,96614.53
2022-10-05T17:50:58.793Z,96614.33
2022-10-05T17:53:53.504Z,96621.12
2022-10-05T17:56:22.493Z,96623.30
2022-10-05T17:58:54.011Z,96624.27
2022-10-05T18:01:31.913Z,96622.33
2022-10-05T18:04:10.944Z,96626.06
2022-10-05T18:06:56.562Z,96626.59
2022-10-05T18:09:24.128Z,96624.72
2022-10-05T18:12:15.793Z,96628.31
2022-10-05T18:15:02.505Z,96626.40
2022-10-05T18:17:45.860Z,96624.00
2022-10-05T18:20:34.147Z,96621.14
2022-10-05T18:23:08.767Z,96624.74
2022-10-05T18:25:44.774Z,96619.27
2022-10-05T18:28:22.757Z,96619.88
2022-10-05T18:31:27.758Z,96620.73
2022-10-05T18:34:25.946Z,96625.91
2022-10-05T18:37:17.160Z,96621.73
2022-10-05T18:40:02.437Z,96622.92
2022-10-05T18:42:55.263Z,96623.15
2022-10-05T18:45:49.844Z,96620.94
2022-10-05T18:48:40.512Z,96625.20
2022-10-05T18:51:25.505Z,96626.19
2022-10-05T18:54:35.830Z,96626.58
2022-10-05T18:57:57.263Z,96623.09
2022-10-05T19:00:31.117Z,96621.70
2022-10-05T19:03:39.883Z,96619.11
2022-10-05T19:06:25.699Z,96622.59
2022-10-05T19:09:23.364Z,96621.02
2022-10-05T19:12:30.624Z,96622.48
2022-10-05T19:15:12.462Z,96625.90
2022-10-05T19:17:55.864Z,96626.94
2022-10-05T19:20:50.761Z,96626.06
2022-10-05T19:23:42.185Z,96623.44
2022-10-05T19:26:18.323Z,96616.95
2022-10-05T19:29:16.025Z,96614.03
2022-10-05T19:31:54.320Z,96615.05
2022-10-05T19:34:45.268Z,96612.92
2022-10-05T19:37:42.442Z,96614.28
2022-10-05T19:40:25.919Z,96614.42
2022-10-05T19:43:07.624Z,96612.23
2022-10-05T19:45:43.675Z,96613.54
2022-10-05T19:48:28.894Z,96618.48
2022-10-05T19:51:00.957Z,96622.13
2022-10-05T19:53:36.507Z,96622.50
2022-10-05T19:56:29.455Z,96622.58
2022-10-05T19:58:58.845Z,96625.62
2022-10-05T20:01:36.471Z,96620.23
2022-10-05T20:04:04.535Z,96621.12
2022-10-05T20:06:31.265Z,96622.07
2022-10-05T20:08:59.590Z,96619.33
2022-10-05T20:11:27.986Z,96616.63
2022-10-05T20:13:54.648Z,96614.27
2022-10-05T20:19:50.846Z,96621.15
2022-10-05T20:22:36.760Z,96626.20
2022-10-05T20:25:28.249Z,96626.02
2022-10-05T20:27:56.123Z,96618.04
2022-10-05T20:30:28.091Z,96616.48
2022-10-05T20:33:01.075Z,96617.63
2022-10-05T20:35:30.035Z,96622.12
2022-10-05T20:37:59.530Z,96616.46
2022-10-05T20:40:28.568Z,96616.00
2022-10-05T20:42:56.500Z,96611.92
2022-10-05T20:45:23.346Z,96609.23
2022-10-05T20:47:50.217Z,96610.17
2022-10-05T20:50:17.398Z,96606.86
2022-10-05T20:52:44.132Z,96604.27
2022-10-05T20:55:12.015Z,96603.50
2022-10-05T20:57:42.920Z,96604.63
2022-10-05T21:00:11.737Z,96608.02
2022-10-05T21:02:39.005Z,96610.27
2022-10-05T21:05:07.097Z,96610.30
2022-10-05T21:07:34.798Z,96610.80
2022-10-05T21:10:03.179Z,96609.02
2022-10-05T21:12:32.188Z,96608.85
2022-10-05T21:14:59.354Z,96607.36
2022-10-05T21:17:26.096Z,96601.58
2022-10-05T21:19:52.906Z,96599.61
2022-10-05T21:22:19.727Z,96599.36
2022-10-05T21:24:46.757Z,96599.45
2022-10-05T21:27:14.426Z,96598.11
2022-10-05T21:29:41.131Z,96596.83
2022-10-05T21:32:10.984Z,96598.25
2022-10-05T21:34:38.810Z,96598.59
2022-10-05T21:37:06.644Z,96598.73
2022-10-05T21:39:34.666Z,96601.39
2022-10-05T21:42:02.056Z,96599.78
2022-10-05T21:44:28.782Z,96600.20
2022-10-05T21:46:56.099Z,96597.94
2022-10-05T21:49:23.931Z,96593.50
2022-10-05T21:51:50.738Z,96590.92
2022-10-05T21:54:20.704Z,96586.86
2022-10-05T21:56:55.119Z,96585.33
2022-10-05T21:59:26.697Z,96582.88
2022-10-05T22:01:53.475Z,96585.58
2022-10-05T22:04:20.449Z,96579.83
2022-10-05T22:06:48.704Z,96578.87
2022-10-05T22:09:15.437Z,96579.43
2022-10-05T22:11:45.282Z,96577.98
2022-10-05T22:14:14.513Z,96574.59
2022-10-05T22:16:42.993Z,96574.64
2022-10-05T22:19:17.203Z,96576.10
2022-10-05T22:21:44.287Z,96575.78
2022-10-05T22:24:11.095Z,96576.90
2022-10-05T22:26:40.177Z,96577.59
2022-10-05T22:29:07.218Z,96577.37
2022-10-05T22:31:34.516Z,96575.48
2022-10-05T22:34:01.379Z,96569.73
2022-10-05T22:36:28.454Z,96569.70
2022-10-05T22:38:55.212Z,96568.70
2022-10-05T22:41:22.051Z,96568.15
2022-10-05T22:43:50.454Z,96568.10
2022-10-05T22:46:18.038Z,96567.98
2022-10-05T22:48:45.191Z,96569.56
2022-10-05T22:51:12.491Z,96569.36
2022-10-05T22:53:39.454Z,96571.02
2022-10-05T22:56:10.605Z,96568.37
2022-10-05T22:58:37.862Z,96570.60
2022-10-05T23:01:07.166Z,96565.71
2022-10-05T23:03:34.769Z,96568.23
2022-10-05T23:06:11.627Z,96566.14
2022-10-05T23:08:39.676Z,96567.41
2022-10-05T23:11:12.876Z,96570.31
2022-10-05T23:13:41.454Z,96570.46
2022-10-05T23:16:11.265Z,96572.48
2022-10-05T23:18:38.511Z,96572.13
2022-10-05T23:21:09.254Z,96570.75
2022-10-05T23:23:37.893Z,96573.83
2022-10-05T23:26:07.342Z,96573.04
2022-10-05T23:28:34.463Z,96572.17
2022-10-05T23:31:04.462Z,96571.27
2022-10-05T23:33:32.145Z,96569.30
2022-10-05T23:36:04.190Z,96568.81
2022-10-05T23:38:32.136Z,96567.58
2022-10-05T23:40:59.419Z,96567.30
2022-10-05T23:43:27.003Z,96563.94
2022-10-05T23:45:54.835Z,96561.79
2022-10-05T23:48:22.325Z,96564.73
2022-10-05T23:50:49.596Z,96563.64
2022-10-05T23:53:17.762Z,96561.84
2022-10-05T23:55:44.761Z,96562.92
2022-10-05T23:58:12.023Z,96566.45
